createdAt,value
2023-04-17T00:01:19.376Z,102107.50
2023-04-17T00:06:22.074Z,102110.63
2023-04-17T00:11:26.325Z,102110.41
2023-04-17T00:16:29.118Z,102114.91
2023-04-17T00:21:32.020Z,102119.25
2023-04-17T00:26:36.142Z,102120.13
2023-04-17T00:31:38.942Z,102125.25
2023-04-17T00:36:42.227Z,102112.75
2023-04-17T00:41:46.406Z,102116.38
2023-04-17T00:46:49.333Z,102115.94
2023-04-17T00:51:52.512Z,102114.41
2023-04-17T00:56:57.717Z,102115.94
2023-04-17T01:02:02.155Z,102112.97
2023-04-17T01:07:05.025Z,102114.50
2023-04-17T01:12:20.132Z,102110.75
2023-04-17T01:17:26.115Z,102107.91
2023-04-17T01:22:29.083Z,102115.16
2023-04-17T01:27:36.179Z,102124.72
2023-04-17T01:32:39.106Z,102121.28
2023-04-17T01:37:41.950Z,102120.16
2023-04-17T01:42:46.131Z,102132.94
2023-04-17T01:47:48.896Z,102127.63
2023-04-17T01:52:51.917Z,102127.56
2023-04-17T01:57:56.045Z,102128.75
2023-04-17T02:02:58.909Z,102129.94
2023-04-17T02:08:01.680Z,102133.66
2023-04-17T02:13:05.824Z,102135.69
2023-04-17T02:18:09.087Z,102134.47
2023-04-17T02:23:12.170Z,102141.47
2023-04-17T02:28:16.455Z,102134.06
2023-04-17T02:33:19.193Z,102142.34
2023-04-17T02:38:22.996Z,102137.97
2023-04-17T02:43:27.243Z,102136.63
2023-04-17T02:48:30.013Z,102140.34
2023-04-17T02:53:32.866Z,102140.19
2023-04-17T02:58:37.521Z,102136.09
2023-04-17T03:03:43.068Z,102135.66
2023-04-17T03:08:48.786Z,102131.13
2023-04-17T03:13:53.739Z,102139.41
2023-04-17T03:18:57.921Z,102138.53
2023-04-17T03:24:00.783Z,102145.28
2023-04-17T03:29:05.146Z,102144.94
2023-04-17T03:34:08.717Z,102136.56
2023-04-17T03:39:12.524Z,102156.09
2023-04-17T03:44:17.360Z,102155.19
2023-04-17T03:49:21.319Z,102149.81
2023-04-17T03:54:25.688Z,102156.66
2023-04-17T03:59:32.950Z,102167.69
2023-04-17T04:04:36.121Z,102167.75
2023-04-17T04:09:46.633Z,102163.28
2023-04-17T04:14:51.869Z,102172.53
2023-04-17T04:19:55.432Z,102184.25
2023-04-17T04:24:59.288Z,102184.16
2023-04-17T04:30:15.481Z,102184.13
2023-04-17T04:35:19.677Z,102183.63
2023-04-17T04:40:24.625Z,102201.72
2023-04-17T04:45:28.819Z,102190.13
2023-04-17T04:50:33.018Z,102189.59
2023-04-17T04:55:36.652Z,102184.84
2023-04-17T05:00:41.766Z,102190.50
2023-04-17T05:05:50.401Z,102193.88
2023-04-17T05:10:55.054Z,102209.06
2023-04-17T05:16:01.496Z,102208.59
2023-04-17T05:21:05.713Z,102216.66
2023-04-17T05:26:09.311Z,102222.09
2023-04-17T05:31:13.721Z,102231.50
2023-04-17T05:36:18.549Z,102231.97
2023-04-17T05:41:22.287Z,102233.53
2023-04-17T05:46:26.559Z,102223.56
2023-04-17T05:51:29.405Z,102220.69
2023-04-17T05:56:32.414Z,102228.72
2023-04-17T06:01:36.986Z,102229.00
2023-04-17T06:06:39.822Z,102233.00
2023-04-17T06:11:42.624Z,102236.19
2023-04-17T06:16:47.059Z,102240.09
2023-04-17T06:21:52.645Z,102247.09
2023-04-17T06:26:56.557Z,102249.69
2023-04-17T06:32:00.869Z,102240.13
2023-04-17T06:37:03.895Z,102242.00
2023-04-17T06:42:07.331Z,102241.56
2023-04-17T06:47:16.021Z,102254.38
2023-04-17T06:52:20.396Z,102245.22
2023-04-17T06:57:23.479Z,102250.16
2023-04-17T07:02:27.896Z,102252.31
2023-04-17T07:07:30.972Z,102257.78
2023-04-17T07:12:34.071Z,102259.19
2023-04-17T07:17:38.458Z,102265.81
2023-04-17T07:22:41.453Z,102262.06
2023-04-17T07:27:44.239Z,102266.22
2023-04-17T07:32:48.549Z,102260.66
2023-04-17T07:37:51.890Z,102268.91
2023-04-17T07:42:56.190Z,102268.94
2023-04-17T07:48:00.456Z,102268.50
2023-04-17T07:53:03.285Z,102277.50
2023-04-17T07:58:06.461Z,102277.53
2023-04-17T08:03:10.759Z,102278.72
2023-04-17T08:08:13.655Z,102282.69
2023-04-17T08:18:20.354Z,102280.63
2023-04-17T08:23:23.095Z,102279.25
2023-04-17T08:28:26.174Z,102283.56
2023-04-17T08:33:30.263Z,102279.84
2023-04-17T08:38:32.992Z,102282.94
2023-04-17T08:43:37.253Z,102289.25
2023-04-17T08:48:41.361Z,102293.53
2023-04-17T08:53:44.275Z,102286.34
2023-04-17T08:58:47.129Z,102286.38
2023-04-17T09:03:52.240Z,102284.13
2023-04-17T09:08:57.028Z,102281.72
2023-04-17T09:14:01.204Z,102286.50
2023-04-17T09:19:07.861Z,102285.44
2023-04-17T09:24:10.616Z,102284.56
2023-04-17T09:29:14.567Z,102277.06
2023-04-17T09:34:20.635Z,102300.94
2023-04-17T09:39:24.724Z,102287.38
2023-04-17T09:44:29.963Z,102297.78
2023-04-17T09:49:40.454Z,102289.75
2023-04-17T09:54:44.239Z,102295.34
2023-04-17T09:59:49.075Z,102300.22
2023-04-17T10:04:55.154Z,102299.78
2023-04-17T10:09:58.064Z,102295.34
2023-04-17T10:15:01.043Z,102300.63
2023-04-17T10:20:44.636Z,102302.66
2023-04-17T10:25:47.719Z,102297.06
2023-04-17T10:30:52.268Z,102285.75
2023-04-17T10:35:59.466Z,102290.97
2023-04-17T10:41:04.826Z,102298.50
2023-04-17T10:46:11.552Z,102285.00
2023-04-17T10:51:43.846Z,102301.22
2023-04-17T10:56:48.859Z,102296.84
2023-04-17T11:02:04.344Z,102297.88
2023-04-17T11:07:08.875Z,102298.75
2023-04-17T11:12:13.229Z,102289.03
2023-04-17T11:17:16.145Z,102293.59
2023-04-17T11:22:22.131Z,102302.06
2023-04-17T11:27:24.939Z,102312.00
2023-04-17T11:32:27.796Z,102300.75
2023-04-17T11:37:31.918Z,102309.13
2023-04-17T11:42:34.718Z,102311.94
2023-04-17T11:47:37.500Z,102310.81
2023-04-17T11:52:41.702Z,102325.25
2023-04-17T11:57:44.728Z,102328.28
2023-04-17T12:02:47.646Z,102339.81
2023-04-17T12:08:04.732Z,102334.22
2023-04-17T12:13:08.139Z,102328.56
2023-04-17T12:18:10.857Z,102334.19
2023-04-17T12:23:14.973Z,102327.06
2023-04-17T12:28:17.977Z,102346.53
2023-04-17T12:33:20.695Z,102345.25
2023-04-17T12:38:24.854Z,102346.78
2023-04-17T12:43:27.670Z,102341.75
2023-04-17T12:48:32.693Z,102347.59
2023-04-17T12:53:37.236Z,102349.25
2023-04-17T12:58:40.020Z,102342.66
2023-04-17T13:03:42.846Z,102352.81
2023-04-17T13:08:47.088Z,102356.84
2023-04-17T13:13:49.836Z,102360.06
2023-04-17T13:18:52.588Z,102348.91
2023-04-17T13:23:56.709Z,102367.13
2023-04-17T13:28:59.390Z,102362.59
2023-04-17T13:34:02.412Z,102363.03
2023-04-17T13:39:06.541Z,102363.59
2023-04-17T13:44:09.361Z,102358.75
2023-04-17T13:49:12.479Z,102342.50
2023-04-17T13:54:16.755Z,102346.16
2023-04-17T13:59:19.927Z,102350.78
2023-04-17T14:04:23.094Z,102337.41
2023-04-17T14:09:27.866Z,102332.09
2023-04-17T14:14:30.615Z,102337.19
2023-04-17T14:19:33.348Z,102339.44
2023-04-17T14:24:37.434Z,102326.97
2023-04-17T14:29:40.269Z,102339.16
2023-04-17T14:34:43.019Z,102322.03
2023-04-17T14:39:47.133Z,102329.66
2023-04-17T14:44:50.173Z,102329.31
2023-04-17T14:49:52.935Z,102330.50
2023-04-17T14:54:57.008Z,102351.94
2023-04-17T14:59:59.935Z,102331.53
2023-04-17T15:05:02.707Z,102328.03
2023-04-17T15:10:07.642Z,102343.50
2023-04-17T15:15:11.117Z,102341.78
2023-04-17T15:20:13.815Z,102340.59
2023-04-17T15:25:18.114Z,102342.75
2023-04-17T15:30:20.868Z,102345.75
2023-04-17T15:35:23.592Z,102347.38
2023-04-17T15:40:27.875Z,102353.06
2023-04-17T15:45:38.737Z,102354.66
2023-04-17T15:50:41.524Z,102361.00
2023-04-17T15:55:44.254Z,102359.53
2023-04-17T16:00:48.499Z,102355.53
2023-04-17T16:05:52.845Z,102361.81
2023-04-17T16:10:56.696Z,102363.78
2023-04-17T16:16:00.877Z,102376.19
2023-04-17T16:21:04.065Z,102386.44
2023-04-17T16:26:07.258Z,102388.31
2023-04-17T16:31:12.014Z,102404.81
2023-04-17T16:36:15.255Z,102403.41
2023-04-17T16:41:18.652Z,102407.13
2023-04-17T16:46:35.424Z,102410.25
2023-04-17T16:51:47.884Z,102408.19
2023-04-17T16:56:50.786Z,102423.19
2023-04-17T17:01:54.997Z,102418.97
2023-04-17T17:06:57.813Z,102426.53
2023-04-17T17:12:00.618Z,102417.44
2023-04-17T17:17:04.832Z,102430.34
2023-04-17T17:22:07.609Z,102426.31
2023-04-17T17:27:10.360Z,102443.84
2023-04-17T17:32:16.383Z,102446.09
2023-04-17T17:37:19.232Z,102444.94
2023-04-17T17:42:22.007Z,102446.31
2023-04-17T17:47:26.268Z,102450.25
2023-04-17T17:52:29.248Z,102452.03
2023-04-17T17:57:45.696Z,102442.06
2023-04-17T18:02:52.715Z,102446.44
2023-04-17T18:07:55.765Z,102455.47
2023-04-17T18:12:58.510Z,102453.88
2023-04-17T18:18:02.760Z,102455.25
2023-04-17T18:23:05.714Z,102453.06
2023-04-17T18:28:08.564Z,102469.63
2023-04-17T18:33:12.876Z,102460.69
2023-04-17T18:38:17.934Z,102459.09
2023-04-17T18:43:23.170Z,102465.88
2023-04-17T18:48:28.375Z,102467.88
2023-04-17T18:53:31.206Z,102471.56
2023-04-17T18:58:33.992Z,102466.66
2023-04-17T19:03:38.233Z,102480.13
2023-04-17T19:08:41.003Z,102502.47
2023-04-17T19:13:45.041Z,102502.53
2023-04-17T19:18:49.316Z,102497.56
2023-04-17T19:23:52.393Z,102495.75
2023-04-17T19:28:55.167Z,102493.03
2023-04-17T19:33:59.376Z,102498.97
2023-04-17T19:39:02.214Z,102493.31
2023-04-17T19:44:05.195Z,102504.22
2023-04-17T19:49:09.343Z,102501.22
2023-04-17T19:54:15.236Z,102500.94
2023-04-17T19:59:18.013Z,102512.84
2023-04-17T20:04:22.159Z,102521.41
2023-04-17T20:09:25.363Z,102517.56
2023-04-17T20:14:28.129Z,102530.09
2023-04-17T20:19:33.396Z,102525.00
2023-04-17T20:24:36.502Z,102526.03
2023-04-17T20:29:39.288Z,102526.75
2023-04-17T20:34:43.504Z,102526.63
2023-04-17T20:39:46.222Z,102531.47
2023-04-17T20:44:49.068Z,102529.28
2023-04-17T20:49:56.036Z,102524.59
2023-04-17T20:55:00.829Z,102526.66
2023-04-17T21:00:04.415Z,102525.53
2023-04-17T21:05:09.922Z,102529.50
2023-04-17T21:10:12.639Z,102529.53
2023-04-17T21:15:15.539Z,102529.53
2023-04-17T21:20:19.642Z,102530.59
2023-04-17T21:25:22.419Z,102532.50
2023-04-17T21:30:27.131Z,102524.25
2023-04-17T21:35:31.484Z,102518.88
2023-04-17T21:40:36.671Z,102524.25
2023-04-17T21:45:39.830Z,102527.50
2023-04-17T21:50:43.975Z,102531.88
2023-04-17T21:55:46.705Z,102534.13
2023-04-17T22:00:49.509Z,102537.59
2023-04-17T22:05:55.598Z,102544.91
2023-04-17T22:10:58.340Z,102556.72
2023-04-17T22:16:01.124Z,102555.66
2023-04-17T22:21:06.105Z,102563.06
2023-04-17T22:26:08.863Z,102561.97
2023-04-17T22:31:11.754Z,102567.16
2023-04-17T22:36:16.020Z,102564.66
2023-04-17T22:41:18.746Z,102567.25
2023-04-17T22:46:21.702Z,102577.19
2023-04-17T22:51:29.692Z,102565.84
2023-04-17T22:56:32.507Z,102579.75
2023-04-17T23:01:35.446Z,102570.63
2023-04-17T23:06:39.560Z,102568.84
2023-04-17T23:11:42.430Z,102566.72
2023-04-17T23:16:45.239Z,102574.53
2023-04-17T23:21:49.338Z,102574.84
2023-04-17T23:26:52.023Z,102577.53
2023-04-17T23:31:54.939Z,102592.13
2023-04-17T23:36:59.320Z,102572.91
2023-04-17T23:42:06.948Z,102582.06
2023-04-17T23:47:10.136Z,102581.34
2023-04-17T23:52:14.294Z,102576.63
2023-04-17T23:57:18.338Z,102573.38
